createdAt,value
2019-01-27T00:01:39.199Z,25.80
2019-01-27T00:04:10.808Z,9.17
2019-01-27T00:06:43.116Z,24.70
2019-01-27T00:09:15.228Z,22.13
2019-01-27T00:11:52.731Z,22.35
2019-01-27T00:14:25.687Z,19.73
2019-01-27T00:16:58.666Z,26.90
2019-01-27T00:19:31.653Z,25.12
2019-01-27T00:22:03.960Z,27.20
2019-01-27T00:24:36.860Z,28.27
2019-01-27T00:27:11.536Z,16.05
2019-01-27T00:29:46.260Z,25.90
2019-01-27T00:32:19.314Z,27.17
2019-01-27T00:34:53.494Z,26.47
2019-01-27T00:37:25.246Z,27.13
2019-01-27T00:39:57.308Z,25.82
2019-01-27T00:42:29.526Z,29.75
2019-01-27T00:45:01.852Z,25.90
2019-01-27T00:47:34.389Z,27.20
2019-01-27T00:50:07.052Z,24.57
2019-01-27T00:52:40.330Z,25.70
2019-01-27T00:55:15.195Z,26.35
2019-01-27T00:57:47.853Z,23.38
2019-01-27T01:00:23.622Z,23.67
2019-01-27T01:02:56.833Z,22.82
2019-01-27T01:05:29.562Z,24.40
2019-01-27T01:08:02.344Z,20.55
2019-01-27T01:10:36.239Z,21.65
2019-01-27T01:13:09.372Z,21.93
2019-01-27T01:15:42.274Z,23.22
2019-01-27T01:18:14.156Z,23.83
2019-01-27T01:20:46.864Z,23.57
2019-01-27T01:23:20.543Z,23.38
2019-01-27T01:25:52.278Z,21.40
2019-01-27T01:28:23.544Z,22.05
2019-01-27T01:30:55.781Z,22.93
2019-01-27T01:33:31.439Z,21.77
2019-01-27T01:36:03.946Z,21.85
2019-01-27T01:38:37.088Z,21.73
2019-01-27T01:41:10.042Z,21.17
2019-01-27T01:43:44.147Z,21.40
2019-01-27T01:46:18.127Z,21.23
2019-01-27T01:48:51.477Z,21.60
2019-01-27T01:51:24.964Z,22.17
2019-01-27T01:53:58.612Z,21.25
2019-01-27T01:56:31.138Z,21.80
2019-01-27T01:59:03.673Z,22.87
2019-01-27T02:01:36.149Z,20.53
2019-01-27T02:04:08.712Z,20.43
2019-01-27T02:06:41.729Z,19.60
2019-01-27T02:09:15.140Z,18.87
2019-01-27T02:11:47.819Z,18.62
2019-01-27T02:14:20.835Z,19.17
2019-01-27T02:16:53.872Z,18.70
2019-01-27T02:19:26.780Z,19.07
2019-01-27T02:22:00.359Z,18.50
2019-01-27T02:24:33.977Z,18.12
2019-01-27T02:27:07.045Z,18.73
2019-01-27T02:29:43.020Z,17.32
2019-01-27T02:32:16.391Z,18.87
2019-01-27T02:34:48.686Z,19.53
2019-01-27T02:37:21.387Z,17.07
2019-01-27T02:39:53.105Z,18.95
2019-01-27T02:42:31.248Z,20.70
2019-01-27T02:45:03.508Z,18.80
2019-01-27T02:47:35.607Z,20.35
2019-01-27T02:50:09.229Z,19.07
2019-01-27T02:52:51.461Z,19.27
2019-01-27T02:55:23.978Z,16.27
2019-01-27T02:57:55.214Z,19.20
2019-01-27T03:00:27.995Z,14.73
2019-01-27T03:02:59.328Z,12.23
2019-01-27T03:05:52.512Z,18.02
2019-01-27T03:08:24.310Z,13.45
2019-01-27T03:10:56.578Z,19.30
2019-01-27T03:13:29.119Z,21.25
2019-01-27T03:16:00.455Z,20.48
2019-01-27T03:18:33.491Z,21.33
2019-01-27T03:21:05.866Z,21.57
2019-01-27T03:23:38.486Z,19.73
2019-01-27T03:26:10.200Z,21.40
2019-01-27T03:28:43.594Z,22.20
2019-01-27T03:31:14.764Z,14.60
2019-01-27T03:33:46.329Z,21.13
2019-01-27T03:36:18.215Z,21.82
2019-01-27T03:38:50.663Z,21.27
2019-01-27T03:41:22.242Z,21.62
2019-01-27T03:43:53.738Z,21.82
2019-01-27T03:46:25.399Z,19.90
2019-01-27T03:48:57.927Z,17.67
2019-01-27T03:51:29.816Z,17.52
2019-01-27T03:54:02.588Z,19.50
2019-01-27T03:56:41.644Z,20.57
2019-01-27T03:59:13.486Z,19.60
2019-01-27T04:01:44.620Z,17.85
2019-01-27T04:04:16.123Z,18.50
2019-01-27T04:06:47.591Z,23.02
2019-01-27T04:09:19.689Z,19.52
2019-01-27T04:11:51.627Z,21.73
2019-01-27T04:14:23.635Z,16.65
2019-01-27T04:16:56.394Z,24.47
2019-01-27T04:19:28.296Z,24.55
2019-01-27T04:21:59.481Z,21.50
2019-01-27T04:24:32.384Z,22.90
2019-01-27T04:27:04.986Z,25.27
2019-01-27T04:29:37.106Z,23.27
2019-01-27T04:32:10.271Z,22.80
2019-01-27T04:34:42.535Z,23.40
2019-01-27T04:37:15.060Z,9.23
2019-01-27T04:39:47.599Z,25.15
2019-01-27T04:42:18.759Z,21.80
2019-01-27T04:44:50.685Z,23.73
2019-01-27T04:47:22.965Z,22.82
2019-01-27T04:49:55.457Z,18.52
2019-01-27T04:52:26.703Z,23.22
2019-01-27T04:54:58.351Z,23.07
2019-01-27T04:58:08.365Z,23.77
2019-01-27T05:00:49.018Z,15.63
2019-01-27T05:03:37.354Z,20.75
2019-01-27T05:06:09.120Z,21.85
2019-01-27T05:08:57.185Z,20.00
2019-01-27T05:11:30.059Z,19.57
2019-01-27T05:14:04.318Z,15.18
2019-01-27T05:16:38.821Z,20.15
2019-01-27T05:19:10.010Z,18.12
2019-01-27T05:21:41.577Z,18.25
2019-01-27T05:24:13.490Z,15.72
2019-01-27T05:26:48.223Z,17.70
2019-01-27T05:29:29.559Z,15.78
2019-01-27T05:32:07.231Z,16.15
2019-01-27T05:34:50.961Z,16.67
2019-01-27T05:37:38.443Z,14.35
2019-01-27T05:40:13.316Z,15.93
2019-01-27T05:42:45.283Z,16.42
2019-01-27T05:45:26.448Z,15.87
2019-01-27T05:47:58.114Z,14.58
2019-01-27T05:50:29.702Z,13.50
2019-01-27T05:53:01.198Z,12.37
2019-01-27T05:55:33.738Z,13.30
2019-01-27T05:58:05.210Z,12.55
2019-01-27T06:00:43.689Z,12.75
2019-01-27T06:03:16.053Z,12.47
2019-01-27T06:05:48.511Z,11.83
2019-01-27T06:08:23.005Z,12.60
2019-01-27T06:10:56.934Z,12.67
2019-01-27T06:13:29.646Z,12.73
2019-01-27T06:16:05.140Z,11.63
2019-01-27T06:18:36.288Z,11.93
2019-01-27T06:21:08.283Z,9.68
2019-01-27T06:23:39.899Z,9.63
2019-01-27T06:26:12.295Z,12.13
2019-01-27T06:28:43.832Z,13.17
2019-01-27T06:31:16.092Z,11.78
2019-01-27T06:34:06.256Z,12.00
2019-01-27T06:36:38.831Z,11.53
2019-01-27T06:39:11.960Z,11.43
2019-01-27T06:41:45.231Z,10.53
2019-01-27T06:44:18.678Z,10.17
2019-01-27T06:46:51.568Z,10.28
2019-01-27T06:49:23.887Z,9.63
2019-01-27T06:51:56.058Z,9.15
2019-01-27T06:54:28.114Z,9.75
2019-01-27T06:57:00.428Z,9.47
2019-01-27T06:59:46.850Z,10.20
2019-01-27T07:02:29.478Z,9.70
2019-01-27T07:05:07.082Z,10.90
2019-01-27T07:08:04.734Z,10.87
2019-01-27T07:10:54.668Z,10.25
2019-01-27T07:13:48.727Z,9.55
2019-01-27T07:16:42.430Z,11.22
2019-01-27T07:19:35.886Z,9.60
2019-01-27T07:22:25.831Z,10.38
2019-01-27T07:25:35.523Z,10.37
2019-01-27T07:28:44.749Z,10.60
2019-01-27T07:31:47.914Z,11.17
2019-01-27T07:34:38.139Z,11.35
2019-01-27T07:37:27.479Z,9.70
2019-01-27T07:40:17.047Z,10.28
2019-01-27T07:42:54.339Z,9.95
2019-01-27T07:45:34.416Z,10.60
2019-01-27T07:48:12.964Z,10.97
2019-01-27T07:51:09.781Z,10.50
2019-01-27T07:54:04.415Z,11.30
2019-01-27T07:56:53.580Z,11.53
2019-01-27T07:59:35.512Z,10.40
2019-01-27T08:02:26.496Z,11.00
2019-01-27T08:05:31.950Z,12.37
2019-01-27T08:08:10.588Z,12.67
2019-01-27T08:10:53.924Z,12.63
2019-01-27T08:13:42.593Z,12.43
2019-01-27T08:16:45.058Z,12.33
2019-01-27T08:19:41.787Z,12.35
2019-01-27T08:22:45.500Z,12.35
2019-01-27T08:25:35.141Z,11.40
2019-01-27T08:28:26.589Z,12.33
2019-01-27T08:31:21.391Z,12.33
2019-01-27T08:34:16.467Z,12.43
2019-01-27T08:37:01.022Z,12.43
2019-01-27T08:39:41.630Z,11.80
2019-01-27T08:42:37.745Z,11.85
2019-01-27T08:45:32.516Z,10.65
2019-01-27T08:48:03.994Z,11.90
2019-01-27T08:50:35.556Z,10.72
2019-01-27T08:53:08.021Z,12.07
2019-01-27T08:55:40.328Z,11.40
2019-01-27T08:58:13.690Z,10.80
2019-01-27T09:00:52.810Z,11.00
2019-01-27T09:03:59.331Z,11.78
2019-01-27T09:06:48.477Z,11.67
2019-01-27T09:09:48.259Z,11.83
2019-01-27T09:12:39.474Z,11.30
2019-01-27T09:15:31.572Z,11.77
2019-01-27T09:18:24.082Z,10.60
2019-01-27T09:21:09.422Z,7.53
2019-01-27T09:23:53.288Z,10.37
2019-01-27T09:26:52.962Z,9.90
2019-01-27T09:29:44.601Z,9.65
2019-01-27T09:32:34.953Z,10.23
2019-01-27T09:35:27.104Z,10.20
2019-01-27T09:38:15.101Z,8.95
2019-01-27T09:41:08.974Z,11.08
2019-01-27T09:43:49.150Z,9.83
2019-01-27T09:46:38.746Z,9.78
2019-01-27T09:49:28.208Z,9.88
2019-01-27T09:52:10.147Z,9.73
2019-01-27T09:54:59.211Z,10.35
2019-01-27T09:57:41.101Z,9.58
2019-01-27T10:00:41.133Z,10.80
2019-01-27T10:03:42.873Z,9.58
2019-01-27T10:06:36.542Z,9.73
2019-01-27T10:09:34.334Z,10.05
2019-01-27T10:12:18.457Z,10.38
2019-01-27T10:15:13.076Z,9.63
2019-01-27T10:18:19.732Z,10.32
2019-01-27T10:21:14.250Z,10.13
2019-01-27T10:23:53.739Z,9.60
2019-01-27T10:26:52.944Z,9.60
2019-01-27T10:29:37.197Z,9.38
2019-01-27T10:32:37.881Z,10.20
2019-01-27T10:35:18.107Z,10.00
2019-01-27T10:37:58.048Z,10.17
2019-01-27T10:40:45.106Z,9.43
2019-01-27T10:43:31.434Z,10.23
2019-01-27T10:46:18.235Z,8.93
2019-01-27T10:49:29.675Z,8.27
2019-01-27T10:52:19.930Z,9.43
2019-01-27T10:55:16.218Z,9.40
2019-01-27T10:58:16.016Z,9.50
2019-01-27T11:01:12.329Z,9.70
2019-01-27T11:04:02.565Z,9.33
2019-01-27T11:06:45.255Z,9.68
2019-01-27T11:12:56.858Z,10.23
2019-01-27T11:15:46.100Z,10.00
2019-01-27T11:18:40.591Z,9.17
2019-01-27T11:21:43.749Z,9.15
2019-01-27T11:24:34.380Z,10.67
2019-01-27T11:27:35.830Z,10.20
2019-01-27T11:30:27.780Z,9.78
2019-01-27T11:33:15.489Z,10.70
2019-01-27T11:35:57.815Z,8.70
2019-01-27T11:38:52.548Z,11.20
2019-01-27T11:41:39.004Z,10.30
2019-01-27T11:44:38.636Z,9.30
2019-01-27T11:47:32.009Z,9.90
2019-01-27T11:50:24.009Z,9.33
2019-01-27T11:53:02.212Z,8.65
2019-01-27T11:55:33.751Z,10.60
2019-01-27T11:58:05.932Z,10.50
2019-01-27T12:00:40.164Z,10.40
2019-01-27T12:03:11.700Z,9.48
2019-01-27T12:05:43.296Z,9.07
2019-01-27T12:08:15.925Z,10.38
2019-01-27T12:10:49.829Z,10.18
2019-01-27T12:13:22.717Z,10.68
2019-01-27T12:15:54.771Z,10.15
2019-01-27T12:18:25.970Z,9.80
2019-01-27T12:20:59.022Z,11.25
2019-01-27T12:23:31.849Z,10.00
2019-01-27T12:26:04.302Z,9.77
2019-01-27T12:28:38.884Z,9.30
2019-01-27T12:31:11.688Z,9.28
2019-01-27T12:33:43.944Z,8.40
2019-01-27T12:36:16.467Z,9.13
2019-01-27T12:38:51.052Z,8.73
2019-01-27T12:41:24.227Z,8.43
2019-01-27T12:43:58.646Z,8.50
2019-01-27T12:46:31.428Z,8.75
2019-01-27T12:49:04.370Z,7.92
2019-01-27T12:51:36.984Z,8.77
2019-01-27T12:54:10.472Z,8.80
2019-01-27T12:56:42.653Z,9.18
2019-01-27T12:59:18.029Z,8.68
2019-01-27T13:01:53.039Z,8.20
2019-01-27T13:04:25.292Z,8.60
2019-01-27T13:06:57.173Z,8.60
2019-01-27T13:09:32.315Z,7.95
2019-01-27T13:12:06.723Z,7.55
2019-01-27T13:14:41.942Z,7.85
2019-01-27T13:17:24.610Z,8.03
2019-01-27T13:19:59.509Z,7.75
2019-01-27T13:22:34.314Z,7.65
2019-01-27T13:25:10.734Z,7.55
2019-01-27T13:27:45.384Z,7.22
2019-01-27T13:30:20.044Z,6.33
2019-01-27T13:32:53.136Z,7.45
2019-01-27T13:35:26.734Z,7.58
2019-01-27T13:38:00.836Z,7.87
2019-01-27T13:40:34.779Z,7.40
2019-01-27T13:43:06.844Z,7.33
2019-01-27T13:45:41.742Z,7.12
2019-01-27T13:48:17.349Z,7.05
2019-01-27T13:50:52.420Z,7.33
2019-01-27T13:53:27.157Z,6.95
2019-01-27T13:56:02.258Z,7.80
2019-01-27T13:58:42.095Z,7.67
2019-01-27T14:01:17.809Z,8.10
2019-01-27T14:03:52.548Z,7.03
2019-01-27T14:06:29.052Z,8.28
2019-01-27T14:09:05.654Z,8.33
2019-01-27T14:11:42.429Z,6.58
2019-01-27T14:14:18.471Z,7.20
2019-01-27T14:16:59.374Z,7.60
2019-01-27T14:19:42.687Z,7.45
2019-01-27T14:22:18.525Z,7.35
2019-01-27T14:24:53.705Z,7.22
2019-01-27T14:27:29.109Z,7.67
2019-01-27T14:30:03.736Z,6.90
2019-01-27T14:32:38.186Z,7.33
2019-01-27T14:35:13.348Z,6.90
2019-01-27T14:37:47.600Z,6.80
2019-01-27T14:40:24.874Z,7.20
2019-01-27T14:43:00.881Z,7.70
2019-01-27T14:45:34.770Z,6.97
2019-01-27T14:48:10.094Z,7.12
2019-01-27T14:50:48.631Z,7.15
2019-01-27T14:53:23.522Z,7.37
2019-01-27T14:55:58.181Z,7.30
2019-01-27T14:58:33.979Z,7.78
2019-01-27T15:01:11.408Z,7.75
2019-01-27T15:03:47.365Z,7.97
2019-01-27T15:06:25.566Z,8.00
2019-01-27T15:08:59.900Z,8.08
2019-01-27T15:11:37.392Z,7.35
2019-01-27T15:14:09.116Z,5.90
2019-01-27T15:16:41.050Z,9.65
2019-01-27T15:19:13.015Z,8.50
2019-01-27T15:21:44.815Z,9.18
2019-01-27T15:24:21.899Z,11.88
2019-01-27T15:27:02.266Z,9.90
2019-01-27T15:29:36.987Z,9.58
2019-01-27T15:32:11.577Z,9.88
2019-01-27T15:34:51.153Z,10.30
2019-01-27T15:37:25.486Z,10.15
2019-01-27T15:40:00.424Z,10.08
2019-01-27T15:42:35.455Z,10.58
2019-01-27T15:45:14.688Z,10.53
2019-01-27T15:47:49.613Z,9.85
2019-01-27T15:50:23.705Z,9.88
2019-01-27T15:53:08.251Z,9.93
2019-01-27T15:55:40.445Z,9.60
2019-01-27T15:58:12.398Z,10.58
2019-01-27T16:00:44.555Z,9.67
2019-01-27T16:03:17.642Z,10.70
2019-01-27T16:05:50.008Z,11.08
2019-01-27T16:08:21.270Z,10.48
2019-01-27T16:10:53.868Z,10.53
2019-01-27T16:13:28.354Z,10.72
2019-01-27T16:16:02.591Z,11.63
2019-01-27T16:18:34.341Z,12.03
2019-01-27T16:21:06.762Z,11.60
2019-01-27T16:23:44.748Z,12.07
2019-01-27T16:26:16.772Z,12.25
2019-01-27T16:28:48.846Z,12.40
2019-01-27T16:31:51.192Z,12.78
2019-01-27T16:34:35.860Z,14.05
2019-01-27T16:37:14.660Z,7.78
2019-01-27T16:39:58.229Z,11.75
2019-01-27T16:42:30.569Z,11.10
2019-01-27T16:45:02.450Z,13.48
2019-01-27T16:47:34.359Z,7.70
2019-01-27T16:50:09.421Z,11.83
2019-01-27T16:52:45.613Z,13.25
2019-01-27T16:55:20.750Z,7.60
2019-01-27T16:57:55.485Z,6.73
2019-01-27T17:00:30.248Z,12.37
2019-01-27T17:03:02.379Z,12.60
2019-01-27T17:05:34.835Z,10.15
2019-01-27T17:08:07.330Z,12.73
2019-01-27T17:10:43.206Z,8.68
2019-01-27T17:13:28.445Z,7.43
2019-01-27T17:16:01.217Z,10.07
2019-01-27T17:18:34.165Z,15.38
2019-01-27T17:21:07.784Z,9.65
2019-01-27T17:23:45.713Z,12.45
2019-01-27T17:26:19.471Z,11.57
2019-01-27T17:28:52.656Z,15.45
2019-01-27T17:31:25.830Z,14.80
2019-01-27T17:33:59.446Z,5.78
2019-01-27T17:36:35.318Z,13.78
2019-01-27T17:39:16.774Z,14.18
2019-01-27T17:42:03.621Z,15.23
2019-01-27T17:44:36.533Z,13.90
2019-01-27T17:47:10.238Z,14.70
2019-01-27T17:49:55.512Z,15.00
2019-01-27T17:52:28.747Z,10.93
2019-01-27T17:55:01.393Z,15.10
2019-01-27T17:57:53.709Z,14.58
2019-01-27T18:00:44.343Z,16.07
2019-01-27T18:03:34.649Z,15.45
2019-01-27T18:06:22.421Z,10.08
2019-01-27T18:09:05.715Z,5.35
2019-01-27T18:11:49.394Z,13.15
2019-01-27T18:14:32.905Z,15.28
2019-01-27T18:17:05.723Z,10.13
2019-01-27T18:19:38.917Z,5.45
2019-01-27T18:22:12.530Z,14.70
2019-01-27T18:24:45.710Z,15.10
2019-01-27T18:27:19.475Z,13.58
2019-01-27T18:29:52.606Z,10.40
2019-01-27T18:32:25.722Z,11.35
2019-01-27T18:34:57.981Z,8.37
2019-01-27T18:37:30.631Z,10.10
2019-01-27T18:40:04.431Z,5.07
2019-01-27T18:42:38.978Z,12.05
2019-01-27T18:45:15.646Z,3.50
2019-01-27T18:47:49.901Z,12.47
2019-01-27T18:50:22.271Z,7.17
2019-01-27T18:53:10.025Z,7.67
2019-01-27T18:55:48.448Z,10.40
2019-01-27T18:58:41.091Z,6.53
2019-01-27T19:01:31.334Z,12.73
2019-01-27T19:04:24.153Z,15.40
2019-01-27T19:07:25.403Z,14.28
2019-01-27T19:10:19.007Z,14.85
2019-01-27T19:13:06.986Z,8.93
2019-01-27T19:16:13.420Z,9.63
2019-01-27T19:19:02.718Z,8.00
2019-01-27T19:21:56.698Z,15.13
2019-01-27T19:24:59.682Z,12.27
2019-01-27T19:27:48.849Z,8.95
2019-01-27T19:30:32.890Z,6.03
2019-01-27T19:33:25.282Z,10.98
2019-01-27T19:36:11.889Z,14.43
2019-01-27T19:39:06.848Z,11.08
2019-01-27T19:41:50.896Z,13.00
2019-01-27T19:44:46.830Z,11.57
2019-01-27T19:47:47.143Z,12.10
2019-01-27T19:50:54.342Z,6.73
2019-01-27T19:53:46.058Z,9.50
2019-01-27T19:56:47.205Z,7.73
2019-01-27T19:59:36.881Z,8.93
2019-01-27T20:02:21.776Z,7.00
2019-01-27T20:05:17.759Z,10.57
2019-01-27T20:08:09.113Z,8.00
2019-01-27T20:11:11.379Z,6.80
2019-01-27T20:14:04.035Z,7.17
2019-01-27T20:17:04.424Z,8.70
2019-01-27T20:19:44.473Z,8.53
2019-01-27T20:22:28.319Z,9.33
2019-01-27T20:25:35.760Z,3.13
2019-01-27T20:28:36.124Z,6.10
2019-01-27T20:31:40.219Z,8.28
2019-01-27T20:34:37.878Z,7.50
2019-01-27T20:37:35.503Z,6.70
2019-01-27T20:40:22.618Z,8.33
2019-01-27T20:43:13.811Z,7.03
2019-01-27T20:45:55.436Z,8.85
2019-01-27T20:48:55.250Z,6.00
2019-01-27T20:51:54.126Z,8.27
2019-01-27T20:54:46.625Z,4.97
2019-01-27T20:57:38.377Z,5.80
2019-01-27T21:00:34.302Z,6.15
2019-01-27T21:03:32.550Z,3.50
2019-01-27T21:06:13.174Z,5.73
2019-01-27T21:09:12.651Z,6.55
2019-01-27T21:12:02.703Z,8.40
2019-01-27T21:14:54.389Z,7.15
2019-01-27T21:17:35.212Z,5.12
2019-01-27T21:20:15.815Z,6.20
2019-01-27T21:22:48.622Z,7.53
2019-01-27T21:25:21.234Z,6.15
2019-01-27T21:27:56.555Z,6.47
2019-01-27T21:30:29.494Z,6.37
2019-01-27T21:33:02.430Z,7.70
2019-01-27T21:35:36.329Z,7.07
2019-01-27T21:38:13.852Z,6.20
2019-01-27T21:40:47.770Z,5.50
2019-01-27T21:43:21.855Z,6.57
2019-01-27T21:45:54.780Z,7.03
2019-01-27T21:48:30.079Z,7.00
2019-01-27T21:51:06.287Z,5.63
2019-01-27T21:53:42.670Z,5.87
2019-01-27T21:56:19.311Z,4.23
2019-01-27T21:58:52.221Z,7.90
2019-01-27T22:01:27.300Z,5.97
2019-01-27T22:04:04.599Z,3.67
2019-01-27T22:06:48.048Z,5.17
2019-01-27T22:09:27.074Z,6.97
2019-01-27T22:12:04.190Z,6.15
2019-01-27T22:14:37.019Z,5.47
2019-01-27T22:17:12.323Z,3.77
2019-01-27T22:19:46.902Z,6.15
2019-01-27T22:22:59.910Z,4.47
2019-01-27T22:25:35.558Z,3.17
2019-01-27T22:28:09.416Z,3.63
2019-01-27T22:30:48.929Z,5.53
2019-01-27T22:33:24.319Z,4.13
2019-01-27T22:35:59.720Z,4.77
2019-01-27T22:38:35.089Z,4.22
2019-01-27T22:41:10.795Z,3.73
2019-01-27T22:43:46.820Z,2.57
2019-01-27T22:46:22.414Z,3.67
2019-01-27T22:48:58.219Z,5.07
2019-01-27T22:51:33.406Z,5.60
2019-01-27T22:54:10.641Z,3.53
2019-01-27T22:56:42.801Z,4.97
2019-01-27T22:59:18.043Z,2.53
2019-01-27T23:02:01.237Z,4.00
2019-01-27T23:04:38.688Z,3.57
2019-01-27T23:07:13.562Z,4.63
2019-01-27T23:09:49.693Z,5.07
2019-01-27T23:12:25.746Z,4.20
2019-01-27T23:15:02.993Z,5.70
2019-01-27T23:17:40.397Z,3.42
2019-01-27T23:20:13.897Z,3.20
2019-01-27T23:22:45.843Z,2.83
2019-01-27T23:25:18.495Z,4.17
2019-01-27T23:27:52.963Z,3.87
2019-01-27T23:30:28.946Z,3.37
2019-01-27T23:33:05.366Z,6.70
2019-01-27T23:35:37.121Z,2.37
2019-01-27T23:38:09.991Z,2.77
2019-01-27T23:40:41.867Z,5.37
2019-01-27T23:43:13.808Z,3.97
2019-01-27T23:45:46.462Z,4.90
2019-01-27T23:48:51.519Z,4.07
2019-01-27T23:51:24.263Z,3.30
2019-01-27T23:53:55.587Z,2.50
2019-01-27T23:56:27.575Z,2.13
2019-01-27T23:59:02.823Z,1.97
